createdAt,value
2023-04-23T00:00:21.120Z,2.70
2023-04-23T00:01:21.022Z,3.90
2023-04-23T00:02:21.068Z,4.20
2023-04-23T00:03:22.107Z,3.90
2023-04-23T00:04:21.185Z,3.20
2023-04-23T00:05:21.001Z,3.60
2023-04-23T00:06:20.982Z,4.50
2023-04-23T00:07:20.994Z,3.10
2023-04-23T00:08:20.992Z,3.60
2023-04-23T00:09:20.963Z,4.50
2023-04-23T00:10:20.935Z,4.10
2023-04-23T00:11:20.939Z,2.40
2023-04-23T00:12:20.969Z,4.70
2023-04-23T00:13:20.963Z,3.30
2023-04-23T00:14:20.909Z,3.10
2023-04-23T00:15:20.909Z,4.30
2023-04-23T00:16:20.922Z,6.00
2023-04-23T00:17:21.026Z,4.90
2023-04-23T00:18:20.873Z,3.60
2023-04-23T00:19:20.919Z,4.80
2023-04-23T00:20:20.879Z,3.80
2023-04-23T00:21:20.862Z,7.40
2023-04-23T00:22:20.861Z,4.00
2023-04-23T00:23:20.888Z,3.80
2023-04-23T00:24:20.876Z,3.60
2023-04-23T00:25:20.817Z,3.20
2023-04-23T00:26:20.830Z,4.10
2023-04-23T00:27:20.797Z,3.20
2023-04-23T00:28:22.267Z,4.70
2023-04-23T00:29:21.787Z,6.00
2023-04-23T00:30:20.806Z,4.30
2023-04-23T00:31:20.757Z,8.70
2023-04-23T00:32:20.811Z,4.80
2023-04-23T00:33:20.926Z,5.20
2023-04-23T00:34:20.751Z,6.30
2023-04-23T00:35:21.658Z,5.70
2023-04-23T00:36:20.818Z,4.40
2023-04-23T00:37:20.718Z,5.10
2023-04-23T00:38:20.723Z,5.70
2023-04-23T00:39:20.728Z,5.00
2023-04-23T00:40:20.755Z,4.70
2023-04-23T00:41:20.691Z,5.80
2023-04-23T00:42:20.676Z,5.20
2023-04-23T00:43:20.715Z,5.20
2023-04-23T00:44:20.694Z,6.00
2023-04-23T00:45:20.652Z,5.70
2023-04-23T00:46:21.765Z,6.50
2023-04-23T00:47:20.685Z,6.30
2023-04-23T00:48:20.630Z,4.70
2023-04-23T00:49:20.733Z,4.90
2023-04-23T00:50:20.637Z,4.90
2023-04-23T00:51:20.643Z,4.00
2023-04-23T00:52:20.617Z,7.40
2023-04-23T00:53:20.584Z,4.90
2023-04-23T00:54:20.619Z,6.40
2023-04-23T00:55:20.610Z,6.40
2023-04-23T00:56:20.638Z,6.80
2023-04-23T00:57:20.586Z,6.60
2023-04-23T00:58:20.621Z,5.50
2023-04-23T00:59:20.572Z,5.10
2023-04-23T01:00:20.583Z,6.10
2023-04-23T01:01:20.573Z,7.00
2023-04-23T01:02:20.650Z,5.60
2023-04-23T01:03:20.672Z,6.40
2023-04-23T01:04:20.543Z,6.70
2023-04-23T01:05:20.545Z,7.90
2023-04-23T01:06:20.520Z,6.90
2023-04-23T01:07:20.491Z,6.20
2023-04-23T01:08:20.500Z,7.90
2023-04-23T01:09:20.509Z,4.90
2023-04-23T01:10:20.467Z,6.50
2023-04-23T01:11:20.531Z,7.50
2023-04-23T01:12:20.504Z,7.20
2023-04-23T01:13:20.424Z,6.20
2023-04-23T01:14:20.444Z,5.90
2023-04-23T01:15:20.426Z,7.90
2023-04-23T01:16:20.479Z,6.60
2023-04-23T01:17:20.446Z,8.00
2023-04-23T01:18:20.395Z,9.10
2023-04-23T01:19:20.381Z,9.40
2023-04-23T01:20:20.560Z,7.50
2023-04-23T01:21:20.394Z,7.10
2023-04-23T01:22:20.425Z,5.40
2023-04-23T01:23:20.408Z,7.10
2023-04-23T01:24:20.371Z,6.90
2023-04-23T01:25:20.368Z,7.30
2023-04-23T01:26:20.356Z,6.30
2023-04-23T01:27:20.354Z,7.20
2023-04-23T01:28:20.357Z,7.50
2023-04-23T01:29:20.345Z,7.80
2023-04-23T01:30:20.307Z,8.90
2023-04-23T01:31:20.357Z,6.70
2023-04-23T01:32:20.326Z,7.30
2023-04-23T01:33:20.311Z,7.70
2023-04-23T01:34:20.297Z,9.20
2023-04-23T01:35:20.312Z,7.90
2023-04-23T01:36:20.252Z,9.10
2023-04-23T01:37:20.255Z,8.10
2023-04-23T01:38:20.343Z,8.60
2023-04-23T01:39:20.269Z,9.30
2023-04-23T01:40:20.271Z,9.10
2023-04-23T01:41:21.139Z,10.60
2023-04-23T01:42:20.233Z,9.70
2023-04-23T01:43:20.234Z,9.20
2023-04-23T01:44:20.200Z,8.30
2023-04-23T01:45:20.249Z,7.80
2023-04-23T01:46:20.205Z,9.00
2023-04-23T01:47:20.237Z,10.90
2023-04-23T01:48:20.203Z,10.10
2023-04-23T01:49:20.167Z,12.20
2023-04-23T01:50:20.168Z,8.50
2023-04-23T01:51:20.168Z,10.30
2023-04-23T01:52:20.178Z,8.70
2023-04-23T01:53:20.130Z,11.20
2023-04-23T01:54:20.132Z,11.80
2023-04-23T01:55:20.107Z,8.40
2023-04-23T01:56:20.115Z,12.20
2023-04-23T01:57:20.108Z,10.40
2023-04-23T01:58:20.137Z,12.00
2023-04-23T01:59:20.096Z,12.60
2023-04-23T02:00:20.220Z,13.30
2023-04-23T02:01:20.092Z,13.10
2023-04-23T02:02:20.090Z,12.80
2023-04-23T02:03:20.310Z,11.30
2023-04-23T02:04:20.169Z,14.00
2023-04-23T02:05:20.054Z,11.80
2023-04-23T02:06:20.024Z,11.60
2023-04-23T02:07:20.045Z,14.00
2023-04-23T02:08:20.067Z,13.10
2023-04-23T02:09:20.076Z,12.00
2023-04-23T02:10:20.002Z,11.40
2023-04-23T02:11:20.021Z,12.30
2023-04-23T02:12:19.972Z,14.80
2023-04-23T02:13:20.017Z,11.10
2023-04-23T02:14:19.997Z,12.20
2023-04-23T02:15:20.040Z,15.40
2023-04-23T02:16:20.007Z,13.70
2023-04-23T02:17:19.987Z,13.60
2023-04-23T02:18:19.934Z,14.60
2023-04-23T02:19:19.929Z,14.40
2023-04-23T02:20:19.949Z,14.90
2023-04-23T02:21:20.639Z,14.00
2023-04-23T02:22:19.918Z,14.20
2023-04-23T02:23:19.884Z,14.70
2023-04-23T02:24:19.900Z,15.80
2023-04-23T02:25:19.916Z,14.70
2023-04-23T02:26:19.897Z,17.80
2023-04-23T02:27:19.852Z,14.80
2023-04-23T02:28:19.869Z,16.90
2023-04-23T02:29:19.883Z,14.70
2023-04-23T02:30:19.861Z,15.60
2023-04-23T02:31:19.887Z,15.40
2023-04-23T02:32:19.855Z,15.30
2023-04-23T02:33:19.825Z,13.10
2023-04-23T02:34:19.835Z,16.20
2023-04-23T02:35:19.852Z,13.30
2023-04-23T02:36:19.792Z,13.60
2023-04-23T02:37:19.801Z,12.40
2023-04-23T02:38:19.839Z,12.80
2023-04-23T02:39:19.756Z,11.30
2023-04-23T02:40:19.771Z,15.70
2023-04-23T02:41:19.758Z,13.50
2023-04-23T02:42:19.758Z,12.80
2023-04-23T02:43:20.473Z,16.50
2023-04-23T02:44:19.730Z,17.30
2023-04-23T02:45:19.740Z,16.50
2023-04-23T02:46:19.726Z,15.20
2023-04-23T02:47:20.537Z,17.00
2023-04-23T02:48:19.726Z,16.90
2023-04-23T02:49:19.721Z,18.80
2023-04-23T02:50:19.686Z,16.10
2023-04-23T02:51:19.694Z,15.70
2023-04-23T02:52:19.666Z,22.10
2023-04-23T02:53:19.711Z,16.90
2023-04-23T02:54:19.674Z,17.70
2023-04-23T02:55:19.727Z,18.00
2023-04-23T02:56:19.681Z,18.20
2023-04-23T02:57:20.672Z,18.60
2023-04-23T02:58:19.622Z,16.10
2023-04-23T02:59:19.628Z,19.00
2023-04-23T03:00:19.622Z,19.30
2023-04-23T03:01:19.638Z,20.40
2023-04-23T03:02:19.701Z,20.40
2023-04-23T03:03:19.662Z,19.80
2023-04-23T03:04:19.687Z,20.60
2023-04-23T03:05:19.592Z,21.20
2023-04-23T03:06:19.559Z,21.10
2023-04-23T03:07:19.583Z,20.40
2023-04-23T03:08:19.565Z,22.70
2023-04-23T03:09:19.564Z,19.50
2023-04-23T03:10:19.575Z,18.90
2023-04-23T03:11:19.523Z,21.40
2023-04-23T03:12:19.519Z,19.20
2023-04-23T03:13:19.553Z,19.50
2023-04-23T03:14:19.508Z,21.80
2023-04-23T03:15:19.499Z,18.90
2023-04-23T03:16:19.537Z,19.70
2023-04-23T03:17:19.486Z,18.20
2023-04-23T03:18:19.489Z,20.50
2023-04-23T03:19:19.457Z,18.70
2023-04-23T03:20:19.484Z,20.40
2023-04-23T03:21:19.489Z,16.60
2023-04-23T03:22:19.494Z,18.20
2023-04-23T03:23:19.465Z,17.50
2023-04-23T03:24:19.452Z,18.00
2023-04-23T03:25:19.417Z,15.70
2023-04-23T03:26:19.535Z,22.80
2023-04-23T03:27:19.479Z,20.40
2023-04-23T03:28:19.604Z,23.10
2023-04-23T03:29:19.369Z,21.20
2023-04-23T03:30:19.407Z,20.00
2023-04-23T03:31:19.430Z,20.70
2023-04-23T03:32:19.444Z,25.30
2023-04-23T03:33:19.379Z,25.70
2023-04-23T03:34:19.382Z,25.40
2023-04-23T03:35:19.341Z,23.10
2023-04-23T03:36:19.393Z,20.80
2023-04-23T03:37:19.329Z,25.40
2023-04-23T03:38:19.403Z,26.00
2023-04-23T03:39:19.322Z,21.00
2023-04-23T03:40:19.307Z,23.00
2023-04-23T03:41:19.327Z,23.90
2023-04-23T03:42:19.386Z,13.80
2023-04-23T03:43:19.299Z,9.70
2023-04-23T03:44:19.314Z,9.00
2023-04-23T03:45:19.432Z,6.70
2023-04-23T03:46:19.350Z,6.60
2023-04-23T04:02:14.734Z,8.70
2023-04-23T04:03:15.966Z,7.70
2023-04-23T04:04:16.139Z,8.70
2023-04-23T04:05:16.009Z,6.70
2023-04-23T04:06:15.736Z,7.00
2023-04-23T04:07:15.710Z,7.80
2023-04-23T04:08:15.757Z,7.10
2023-04-23T04:09:15.720Z,8.10
2023-04-23T04:10:15.750Z,7.70
2023-04-23T04:11:15.710Z,8.60
2023-04-23T04:12:15.688Z,9.00
2023-04-23T04:13:15.742Z,8.10
2023-04-23T04:14:15.655Z,7.90
2023-04-23T04:15:16.001Z,10.80
2023-04-23T04:16:15.682Z,9.60
2023-04-23T04:17:15.695Z,8.90
2023-04-23T04:18:15.651Z,16.70
2023-04-23T04:19:15.626Z,8.30
2023-04-23T04:20:15.667Z,10.30
2023-04-23T04:21:15.713Z,10.00
2023-04-23T04:22:15.656Z,8.80
2023-04-23T04:23:16.307Z,10.10
2023-04-23T04:24:15.586Z,11.50
2023-04-23T04:25:15.591Z,9.90
2023-04-23T04:26:15.573Z,10.80
2023-04-23T04:27:15.584Z,10.80
2023-04-23T04:28:15.614Z,11.30
2023-04-23T04:29:15.595Z,13.70
2023-04-23T04:30:15.530Z,12.10
2023-04-23T04:31:15.546Z,12.20
2023-04-23T04:32:15.584Z,13.00
2023-04-23T04:33:15.536Z,16.70
2023-04-23T04:34:15.548Z,13.70
2023-04-23T04:35:15.507Z,13.50
2023-04-23T04:36:15.510Z,10.40
2023-04-23T04:37:15.505Z,11.30
2023-04-23T04:38:15.495Z,13.30
2023-04-23T04:39:15.508Z,10.60
2023-04-23T04:40:15.488Z,11.40
2023-04-23T04:41:15.450Z,10.80
2023-04-23T04:42:15.453Z,12.40
2023-04-23T04:43:15.429Z,11.60
2023-04-23T04:44:15.490Z,13.00
2023-04-23T04:45:15.457Z,13.60
2023-04-23T04:46:15.462Z,13.30
2023-04-23T04:47:15.410Z,13.90
2023-04-23T04:48:15.406Z,13.90
2023-04-23T04:49:15.420Z,12.50
2023-04-23T04:50:15.422Z,13.50
2023-04-23T04:51:15.374Z,11.60
2023-04-23T04:52:15.391Z,12.10
2023-04-23T04:53:15.369Z,13.30
2023-04-23T04:54:15.455Z,16.10
2023-04-23T04:55:15.381Z,12.50
2023-04-23T04:56:15.323Z,14.50
2023-04-23T04:57:15.332Z,13.50
2023-04-23T04:58:15.329Z,13.60
2023-04-23T04:59:15.311Z,14.50
2023-04-23T05:00:16.294Z,10.70
2023-04-23T05:01:15.306Z,11.50
2023-04-23T05:02:15.406Z,11.80
2023-04-23T05:03:15.440Z,12.80
2023-04-23T05:04:15.481Z,13.90
2023-04-23T05:05:15.287Z,9.70
2023-04-23T05:06:15.350Z,10.40
2023-04-23T05:07:15.290Z,9.50
2023-04-23T05:08:15.249Z,10.00
2023-04-23T05:09:15.234Z,8.80
2023-04-23T05:10:15.241Z,9.10
2023-04-23T05:11:15.242Z,9.30
2023-04-23T05:12:15.244Z,9.80
2023-04-23T05:13:15.210Z,9.50
2023-04-23T05:14:15.207Z,9.10
2023-04-23T05:15:15.226Z,9.50
2023-04-23T05:16:15.254Z,10.20
2023-04-23T05:17:15.185Z,10.20
2023-04-23T05:18:15.182Z,9.40
2023-04-23T05:19:15.192Z,9.10
2023-04-23T05:20:15.863Z,9.60
2023-04-23T05:21:15.816Z,9.50
2023-04-23T05:22:15.163Z,12.40
2023-04-23T05:23:15.144Z,10.30
2023-04-23T05:24:15.139Z,11.20
2023-04-23T05:25:15.119Z,12.00
2023-04-23T05:26:15.155Z,10.50
2023-04-23T05:27:15.106Z,10.50
2023-04-23T05:28:15.103Z,10.40
2023-04-23T05:29:15.088Z,9.10
2023-04-23T05:30:15.074Z,12.20
2023-04-23T05:31:15.069Z,10.30
2023-04-23T05:32:15.208Z,12.10
2023-04-23T05:33:15.072Z,12.40
2023-04-23T05:34:15.101Z,9.90
2023-04-23T05:35:15.051Z,8.80
2023-04-23T05:36:15.053Z,11.70
2023-04-23T05:37:15.022Z,10.20
2023-04-23T05:38:15.043Z,10.20
2023-04-23T05:39:15.041Z,9.90
2023-04-23T05:40:15.012Z,10.60
2023-04-23T05:41:15.047Z,9.60
2023-04-23T05:42:14.995Z,10.40
2023-04-23T05:43:15.017Z,9.70
2023-04-23T05:44:14.971Z,10.30
2023-04-23T05:45:14.988Z,11.40
2023-04-23T05:46:14.988Z,10.60
2023-04-23T05:47:14.956Z,12.50
2023-04-23T05:48:14.922Z,10.70
2023-04-23T05:49:14.957Z,10.40
2023-04-23T05:50:14.939Z,10.00
2023-04-23T05:51:14.926Z,11.30
2023-04-23T05:52:14.914Z,12.10
2023-04-23T05:53:14.905Z,9.80
2023-04-23T05:54:14.912Z,11.00
2023-04-23T05:55:14.872Z,10.80
2023-04-23T05:56:14.898Z,9.10
2023-04-23T05:57:14.858Z,11.00
2023-04-23T05:58:14.902Z,9.80
2023-04-23T05:59:14.847Z,9.30
2023-04-23T06:00:14.852Z,9.70
2023-04-23T06:01:15.808Z,11.10
2023-04-23T06:02:14.994Z,8.90
2023-04-23T06:03:15.085Z,8.80
2023-04-23T06:04:15.118Z,10.00
2023-04-23T06:05:15.044Z,9.40
2023-04-23T06:06:14.857Z,8.90
2023-04-23T06:07:14.826Z,11.10
2023-04-23T06:08:14.786Z,9.40
2023-04-23T06:09:14.831Z,10.20
2023-04-23T06:10:14.777Z,12.50
2023-04-23T06:11:14.774Z,10.70
2023-04-23T06:12:14.741Z,8.50
2023-04-23T06:13:14.868Z,10.00
2023-04-23T06:14:14.732Z,9.40
2023-04-23T06:15:14.755Z,11.20
2023-04-23T06:16:14.773Z,11.50
2023-04-23T06:17:14.745Z,10.70
2023-04-23T06:18:14.799Z,11.30
2023-04-23T06:19:14.725Z,8.60
2023-04-23T06:20:14.719Z,10.00
2023-04-23T06:21:14.719Z,8.80
2023-04-23T06:22:14.702Z,8.70
2023-04-23T06:23:14.692Z,8.00
2023-04-23T06:24:14.710Z,9.00
2023-04-23T06:25:14.656Z,8.90
2023-04-23T06:26:14.688Z,10.10
2023-04-23T06:27:14.671Z,8.60
2023-04-23T06:28:14.633Z,7.20
2023-04-23T06:29:14.636Z,8.30
2023-04-23T06:30:14.654Z,6.50
2023-04-23T06:31:14.660Z,5.50
2023-04-23T06:32:14.646Z,5.90
2023-04-23T06:33:14.606Z,6.80
2023-04-23T06:34:14.588Z,7.40
2023-04-23T06:35:14.589Z,6.70
2023-04-23T06:36:14.588Z,8.50
2023-04-23T06:37:14.575Z,6.80
2023-04-23T06:38:14.576Z,5.50
2023-04-23T06:39:14.571Z,5.60
2023-04-23T06:40:14.550Z,6.60
2023-04-23T06:41:14.543Z,6.30
2023-04-23T06:42:14.532Z,5.80
2023-04-23T06:43:14.659Z,6.70
2023-04-23T06:44:14.677Z,5.10
2023-04-23T06:45:14.594Z,5.00
2023-04-23T06:46:14.536Z,6.30
2023-04-23T06:47:14.490Z,7.10
2023-04-23T06:48:14.609Z,6.30
2023-04-23T06:49:14.624Z,6.00
2023-04-23T06:50:14.509Z,7.40
2023-04-23T06:51:14.483Z,6.70
2023-04-23T06:52:14.455Z,5.10
2023-04-23T06:53:14.454Z,5.30
2023-04-23T06:54:14.474Z,5.50
2023-04-23T06:55:14.430Z,6.30
2023-04-23T06:56:14.664Z,6.90
2023-04-23T06:57:14.415Z,4.70
2023-04-23T06:58:16.007Z,5.40
2023-04-23T06:59:14.416Z,7.80
2023-04-23T07:00:15.307Z,5.90
2023-04-23T07:01:14.417Z,7.20
2023-04-23T07:02:14.436Z,6.60
2023-04-23T07:03:14.437Z,5.50
2023-04-23T07:04:14.454Z,8.10
2023-04-23T07:05:14.383Z,6.90
2023-04-23T07:06:14.380Z,7.90
2023-04-23T07:07:14.355Z,5.10
2023-04-23T07:08:15.367Z,8.80
2023-04-23T07:09:14.341Z,6.80
2023-04-23T07:10:16.296Z,5.40
2023-04-23T07:11:15.360Z,4.70
2023-04-23T07:12:14.326Z,6.40
2023-04-23T07:13:14.341Z,5.50
2023-04-23T07:14:14.306Z,6.70
2023-04-23T07:15:14.322Z,6.90
2023-04-23T07:16:14.343Z,4.90
2023-04-23T07:17:14.322Z,5.20
2023-04-23T07:18:14.310Z,5.20
2023-04-23T07:19:14.279Z,5.90
2023-04-23T07:20:14.276Z,5.00
2023-04-23T07:21:14.295Z,6.60
2023-04-23T07:22:14.263Z,5.30
2023-04-23T07:23:14.242Z,5.70
2023-04-23T07:24:14.274Z,6.10
2023-04-23T07:25:14.230Z,8.60
2023-04-23T07:26:14.225Z,5.60
2023-04-23T07:27:14.240Z,4.80
2023-04-23T07:28:14.206Z,6.20
2023-04-23T07:29:14.262Z,5.40
2023-04-23T07:30:14.214Z,5.30
2023-04-23T07:31:14.223Z,6.20
2023-04-23T07:32:14.288Z,5.10
2023-04-23T07:33:14.195Z,5.20
2023-04-23T07:34:14.188Z,4.90
2023-04-23T07:35:14.151Z,4.80
2023-04-23T07:36:14.413Z,5.20
2023-04-23T07:37:14.176Z,5.80
2023-04-23T07:38:14.134Z,5.50
2023-04-23T07:39:14.175Z,4.90
2023-04-23T07:40:14.142Z,4.80
2023-04-23T07:41:14.129Z,5.60
2023-04-23T07:42:14.209Z,5.90
2023-04-23T07:43:14.107Z,5.00
2023-04-23T07:44:14.119Z,4.70
2023-04-23T07:45:14.093Z,4.60
2023-04-23T07:46:14.104Z,4.70
2023-04-23T07:47:14.079Z,4.90
2023-04-23T07:48:14.064Z,4.50
2023-04-23T07:49:14.246Z,4.40
2023-04-23T07:50:14.053Z,5.80
2023-04-23T07:51:14.075Z,5.20
2023-04-23T07:52:14.258Z,5.50
2023-04-23T07:53:14.010Z,4.70
2023-04-23T07:54:14.094Z,4.70
2023-04-23T07:55:14.034Z,4.20
2023-04-23T07:56:14.033Z,4.80
2023-04-23T07:57:13.998Z,7.20
2023-04-23T07:58:14.051Z,5.10
2023-04-23T07:59:14.018Z,5.30
2023-04-23T08:00:14.034Z,5.30
2023-04-23T08:01:13.969Z,6.80
2023-04-23T08:02:14.106Z,5.50
2023-04-23T08:03:14.169Z,4.30
2023-04-23T08:04:14.304Z,4.70
2023-04-23T08:05:13.998Z,4.80
2023-04-23T08:06:13.949Z,4.30
2023-04-23T08:07:13.924Z,5.50
2023-04-23T08:08:13.896Z,4.40
2023-04-23T08:09:13.955Z,5.30
2023-04-23T08:10:13.926Z,5.00
2023-04-23T08:11:13.929Z,5.70
2023-04-23T08:12:13.880Z,4.80
2023-04-23T08:13:13.864Z,4.80
2023-04-23T08:14:13.853Z,5.30
2023-04-23T08:15:13.913Z,6.40
2023-04-23T08:16:13.926Z,4.20
2023-04-23T08:17:13.895Z,6.60
2023-04-23T08:18:13.837Z,5.60
2023-04-23T08:19:13.845Z,5.40
2023-04-23T08:20:13.832Z,5.60
2023-04-23T08:21:13.856Z,4.00
2023-04-23T08:22:13.823Z,4.70
2023-04-23T08:23:13.809Z,5.50
2023-04-23T08:24:14.372Z,3.70
2023-04-23T08:25:13.781Z,3.60
2023-04-23T08:26:13.814Z,4.00
2023-04-23T08:27:13.803Z,3.50
2023-04-23T08:28:13.827Z,4.30
2023-04-23T08:29:13.786Z,3.50
2023-04-23T08:30:13.774Z,4.30
2023-04-23T08:31:25.856Z,3.90
2023-04-23T08:32:15.867Z,4.90
2023-04-23T08:33:13.774Z,4.40
2023-04-23T08:34:13.735Z,3.90
2023-04-23T08:35:13.709Z,3.40
2023-04-23T08:36:13.702Z,4.00
2023-04-23T08:37:23.196Z,4.30
2023-04-23T08:38:15.727Z,6.20
2023-04-23T08:39:13.781Z,7.00
2023-04-23T08:40:13.696Z,4.60
2023-04-23T08:41:13.651Z,3.70
2023-04-23T08:42:13.808Z,3.90
2023-04-23T08:43:13.641Z,4.80
2023-04-23T08:44:13.676Z,4.30
2023-04-23T08:45:13.667Z,6.50
2023-04-23T08:46:13.693Z,4.60
2023-04-23T08:47:13.639Z,4.40
2023-04-23T08:48:13.686Z,4.60
2023-04-23T08:49:13.660Z,4.30
2023-04-23T08:50:13.624Z,4.40
2023-04-23T08:51:13.577Z,4.90
2023-04-23T08:52:13.587Z,4.90
2023-04-23T08:53:13.621Z,5.40
2023-04-23T08:54:13.587Z,8.40
2023-04-23T08:55:13.588Z,4.30
2023-04-23T08:56:13.587Z,3.80
2023-04-23T08:57:13.597Z,5.00
2023-04-23T08:58:14.295Z,5.50
2023-04-23T08:59:13.592Z,4.10
2023-04-23T09:00:13.651Z,3.90
2023-04-23T09:01:14.567Z,4.60
2023-04-23T09:02:13.580Z,6.30
2023-04-23T09:03:13.625Z,5.00
2023-04-23T09:04:13.510Z,4.70
2023-04-23T09:05:13.510Z,6.00
2023-04-23T09:06:13.496Z,8.40
2023-04-23T09:07:13.615Z,6.90
2023-04-23T09:08:13.700Z,4.90
2023-04-23T09:09:13.534Z,4.90
2023-04-23T09:10:16.078Z,4.00
2023-04-23T09:11:13.486Z,5.00
2023-04-23T09:12:13.488Z,4.90
2023-04-23T09:13:13.569Z,7.50
2023-04-23T09:14:13.543Z,5.60
2023-04-23T09:15:13.543Z,6.40
2023-04-23T09:16:13.620Z,5.80
2023-04-23T09:17:13.477Z,5.80
2023-04-23T09:18:13.450Z,4.60
2023-04-23T09:19:13.424Z,6.10
2023-04-23T09:20:13.416Z,5.40
2023-04-23T09:21:13.398Z,4.70
2023-04-23T09:22:13.522Z,3.60
2023-04-23T09:23:13.404Z,6.20
2023-04-23T09:24:13.422Z,4.30
2023-04-23T09:25:13.400Z,5.20
2023-04-23T09:26:13.364Z,5.20
2023-04-23T09:27:14.392Z,4.60
2023-04-23T09:28:13.333Z,3.40
2023-04-23T09:29:13.335Z,5.90
2023-04-23T09:30:13.349Z,5.70
2023-04-23T09:31:13.344Z,6.80
2023-04-23T09:32:13.374Z,7.00
2023-04-23T09:33:13.323Z,7.00
2023-04-23T09:34:13.290Z,5.00
2023-04-23T09:35:13.299Z,4.20
2023-04-23T09:36:13.328Z,5.80
2023-04-23T09:37:13.319Z,5.50
2023-04-23T09:38:13.321Z,6.30
2023-04-23T09:39:13.277Z,4.40
2023-04-23T09:40:13.238Z,5.90
2023-04-23T09:41:13.245Z,6.80
2023-04-23T09:42:13.278Z,5.30
2023-04-23T09:43:13.231Z,4.70
2023-04-23T09:44:13.244Z,4.50
2023-04-23T09:45:13.185Z,5.30
2023-04-23T09:46:13.222Z,6.30
2023-04-23T09:47:13.488Z,4.80
2023-04-23T09:48:13.174Z,4.20
2023-04-23T09:49:13.212Z,4.80
2023-04-23T09:50:13.229Z,4.30
2023-04-23T09:51:13.151Z,4.30
2023-04-23T09:52:13.187Z,5.80
2023-04-23T09:53:13.148Z,4.60
2023-04-23T09:54:13.122Z,3.70
2023-04-23T09:55:13.120Z,5.70
2023-04-23T09:56:13.139Z,5.00
2023-04-23T09:57:13.105Z,4.90
2023-04-23T09:58:13.121Z,3.40
2023-04-23T09:59:13.111Z,3.60
2023-04-23T10:00:14.791Z,3.90
2023-04-23T10:01:14.128Z,3.80
2023-04-23T10:02:13.226Z,5.40
2023-04-23T10:03:13.193Z,3.90
2023-04-23T10:04:13.206Z,5.20
2023-04-23T10:05:23.466Z,6.20
2023-04-23T10:06:30.604Z,3.70
2023-04-23T10:07:19.708Z,3.40
2023-04-23T10:08:15.237Z,4.40
2023-04-23T10:09:13.100Z,4.00
2023-04-23T10:10:13.055Z,4.80
2023-04-23T10:11:20.725Z,4.70
2023-04-23T10:12:35.384Z,4.40
2023-04-23T10:13:15.065Z,5.60
2023-04-23T10:14:13.040Z,5.80
2023-04-23T10:15:12.957Z,3.50
2023-04-23T10:16:22.315Z,5.00
2023-04-23T10:17:14.974Z,5.30
2023-04-23T10:18:12.971Z,4.60
2023-04-23T10:19:13.379Z,5.40
2023-04-23T10:20:12.923Z,3.70
2023-04-23T10:21:12.929Z,4.40
2023-04-23T10:22:18.998Z,4.70
2023-04-23T10:23:14.922Z,4.10
2023-04-23T10:24:12.927Z,5.70
2023-04-23T10:25:12.927Z,5.00
2023-04-23T10:26:12.880Z,4.60
2023-04-23T10:27:24.801Z,3.40
2023-04-23T10:28:14.928Z,4.20
2023-04-23T10:29:12.862Z,3.70
2023-04-23T10:30:12.896Z,4.90
2023-04-23T10:31:12.903Z,5.00
2023-04-23T10:32:12.830Z,4.30
2023-04-23T10:33:22.380Z,4.10
2023-04-23T10:34:14.918Z,4.00
2023-04-23T10:35:12.858Z,4.00
2023-04-23T10:36:12.817Z,6.70
2023-04-23T10:37:12.804Z,3.40
2023-04-23T10:38:12.797Z,3.20
2023-04-23T10:39:12.777Z,4.10
2023-04-23T10:40:12.807Z,5.70
2023-04-23T10:41:12.785Z,3.70
2023-04-23T10:42:12.753Z,2.90
2023-04-23T10:43:12.748Z,4.80
2023-04-23T10:44:13.892Z,4.70
2023-04-23T10:45:23.096Z,3.30
2023-04-23T10:46:14.806Z,3.00
2023-04-23T10:47:12.722Z,2.90
2023-04-23T10:48:13.757Z,4.30
2023-04-23T10:49:12.739Z,3.60
2023-04-23T10:50:12.735Z,4.30
2023-04-23T10:51:49.479Z,3.50
2023-04-23T10:52:20.012Z,5.00
2023-04-23T10:53:14.729Z,2.40
2023-04-23T10:54:12.681Z,3.00
2023-04-23T10:55:12.729Z,4.30
2023-04-23T10:56:12.657Z,3.20
2023-04-23T10:57:12.673Z,3.10
2023-04-23T10:58:12.644Z,2.90
2023-04-23T10:59:12.686Z,3.90
2023-04-23T11:00:12.672Z,4.30
2023-04-23T11:01:12.652Z,2.30
2023-04-23T11:02:12.758Z,2.50
2023-04-23T11:03:12.820Z,3.00
2023-04-23T11:04:12.816Z,2.50
2023-04-23T11:05:12.695Z,2.60
2023-04-23T11:06:12.628Z,2.40
2023-04-23T11:07:12.612Z,2.90
2023-04-23T11:08:19.197Z,2.10
2023-04-23T11:09:14.587Z,2.90
2023-04-23T11:10:12.573Z,2.30
2023-04-23T11:11:12.551Z,2.50
2023-04-23T11:12:12.560Z,2.90
2023-04-23T11:13:12.551Z,6.10
2023-04-23T11:14:12.544Z,3.50
2023-04-23T11:15:12.562Z,4.90
2023-04-23T11:16:13.498Z,4.90
2023-04-23T11:17:12.530Z,2.80
2023-04-23T11:18:13.523Z,3.20
2023-04-23T11:19:12.588Z,2.90
2023-04-23T11:20:12.564Z,3.30
2023-04-23T11:21:12.491Z,4.10
2023-04-23T11:22:12.523Z,4.10
2023-04-23T11:23:12.460Z,2.60
2023-04-23T11:24:12.496Z,2.70
2023-04-23T11:25:12.475Z,3.20
2023-04-23T11:26:12.454Z,4.70
2023-04-23T11:27:12.422Z,11.00
2023-04-23T11:28:12.444Z,4.40
2023-04-23T11:29:12.560Z,6.30
2023-04-23T11:30:12.409Z,2.60
2023-04-23T11:31:12.406Z,2.10
2023-04-23T11:32:12.465Z,2.30
2023-04-23T11:33:12.548Z,2.40
2023-04-23T11:34:12.442Z,2.60
2023-04-23T11:35:13.816Z,3.60
2023-04-23T11:36:13.470Z,2.90
2023-04-23T11:37:12.379Z,2.50
2023-04-23T11:38:12.367Z,2.60
2023-04-23T11:39:12.343Z,3.20
2023-04-23T11:40:12.408Z,3.20
2023-04-23T11:41:12.360Z,3.90
2023-04-23T11:42:12.338Z,2.90
2023-04-23T11:43:12.392Z,2.70
2023-04-23T11:44:12.334Z,5.00
2023-04-23T11:45:12.319Z,3.20
2023-04-23T11:46:12.354Z,4.00
2023-04-23T11:47:12.276Z,2.80
2023-04-23T11:48:12.283Z,3.00
2023-04-23T11:49:12.310Z,3.00
2023-04-23T11:50:12.379Z,4.70
2023-04-23T11:51:12.293Z,3.60
2023-04-23T11:52:12.282Z,4.10
2023-04-23T11:53:12.219Z,4.40
2023-04-23T11:54:12.244Z,4.30
2023-04-23T11:55:12.231Z,3.60
2023-04-23T11:56:12.235Z,2.80
2023-04-23T11:57:12.258Z,3.50
2023-04-23T11:58:12.202Z,3.20
2023-04-23T11:59:12.220Z,2.70
2023-04-23T12:00:12.263Z,4.30
2023-04-23T12:01:12.229Z,3.80
2023-04-23T12:02:12.259Z,5.90
2023-04-23T12:03:12.408Z,3.90
2023-04-23T12:04:12.467Z,4.90
2023-04-23T12:05:12.178Z,5.10
2023-04-23T12:06:12.177Z,3.20
2023-04-23T12:07:25.393Z,2.60
2023-04-23T12:08:14.117Z,5.00
2023-04-23T12:09:12.116Z,4.60
2023-04-23T12:10:12.152Z,7.50
2023-04-23T12:11:12.100Z,9.30
2023-04-23T12:12:12.149Z,2.50
2023-04-23T12:13:12.112Z,4.50
2023-04-23T12:14:12.080Z,5.20
2023-04-23T12:15:12.105Z,2.10
2023-04-23T12:16:12.187Z,2.50
2023-04-23T12:17:12.077Z,3.00
2023-04-23T12:18:12.080Z,3.60
2023-04-23T12:19:12.095Z,3.10
2023-04-23T12:20:12.057Z,4.40
2023-04-23T12:21:12.061Z,3.00
2023-04-23T12:22:12.016Z,4.00
2023-04-23T12:23:12.037Z,3.50
2023-04-23T12:24:12.014Z,3.20
2023-04-23T12:25:12.010Z,2.80
2023-04-23T12:26:12.041Z,3.10
2023-04-23T12:27:12.035Z,2.00
2023-04-23T12:28:12.015Z,5.60
2023-04-23T12:29:12.001Z,2.40
2023-04-23T12:30:12.168Z,3.70
2023-04-23T12:31:12.591Z,2.60
2023-04-23T12:32:12.204Z,2.70
2023-04-23T12:33:12.042Z,4.80
2023-04-23T12:34:11.992Z,8.20
2023-04-23T12:35:11.948Z,7.60
2023-04-23T12:36:11.948Z,5.40
2023-04-23T12:37:11.913Z,4.20
2023-04-23T12:38:11.982Z,4.90
2023-04-23T12:39:11.941Z,2.60
2023-04-23T12:40:12.469Z,4.30
2023-04-23T12:41:11.924Z,3.30
2023-04-23T12:42:11.898Z,6.50
2023-04-23T12:43:11.947Z,5.90
2023-04-23T12:44:44.376Z,4.80
2023-04-23T12:45:43.803Z,4.30
2023-04-23T12:46:11.892Z,2.10
2023-04-23T12:47:11.813Z,2.90
2023-04-23T12:48:11.807Z,3.70
2023-04-23T12:49:11.827Z,1.90
2023-04-23T12:50:11.800Z,4.00
2023-04-23T12:51:11.816Z,3.50
2023-04-23T12:52:13.896Z,1.80
2023-04-23T12:53:12.798Z,3.80
2023-04-23T12:54:11.766Z,4.70
2023-04-23T12:55:11.843Z,2.80
2023-04-23T12:56:11.777Z,2.30
2023-04-23T12:57:11.742Z,3.40
2023-04-23T12:58:11.798Z,2.80
2023-04-23T12:59:11.755Z,2.30
2023-04-23T13:00:11.710Z,3.00
2023-04-23T13:01:11.960Z,2.30
2023-04-23T13:02:11.905Z,2.50
2023-04-23T13:03:11.755Z,4.10
2023-04-23T13:04:11.691Z,2.00
2023-04-23T13:05:11.690Z,5.10
2023-04-23T13:06:11.723Z,5.70
2023-04-23T13:07:11.701Z,3.10
2023-04-23T13:08:11.670Z,1.80
2023-04-23T13:09:11.689Z,2.20
2023-04-23T13:10:11.673Z,3.60
2023-04-23T13:11:13.428Z,3.20
2023-04-23T13:12:11.670Z,3.90
2023-04-23T13:13:11.652Z,2.40
2023-04-23T13:14:11.652Z,3.70
2023-04-23T13:15:11.648Z,3.60
2023-04-23T13:16:11.695Z,3.80
2023-04-23T13:17:11.623Z,4.50
2023-04-23T13:18:11.626Z,3.50
2023-04-23T13:19:11.602Z,2.20
2023-04-23T13:20:11.631Z,4.40
2023-04-23T13:21:11.647Z,2.60
2023-04-23T13:22:11.596Z,3.80
2023-04-23T13:23:11.639Z,2.50
2023-04-23T13:24:11.585Z,2.70
2023-04-23T13:25:11.544Z,2.30
2023-04-23T13:26:11.552Z,3.60